Decoded Metar for LZKZ (KOSICE in SLOVAKIA) (IATA:KSC) | Meteo·Mobile Aviation Weather
aviador You're here:

LZKZ Decoded Metar

KOSICE in SLOVAKIA
Report Time2019-07-19 18:30:00
UTC Time2019-07-19 19:04:59
Flight Rules vfr VFR
WindVRB at 01 kt
Visibility9999 m
Phenomena:N/A
Clouds:Few TCU 040 Hf
Expected CloudBase > 3,600 ft AGL from Temp-Dew spread
CeilingNone
Temp21°C (ISA +8)
Dew Point12°C (57% RH)
QNH1017 hPa
Density Alt1,693 ft
Elevation761 ft
Report Wrong Elevation
Raw Report
LZKZ 191830Z VRB01KT 9999 FEW040TCU 21/12 Q1017=

Extra information for LZKZ:More info

Metar Taf Metar & Taf Last 4 Metars F.Rules Stats Wind Profile Meteogram Temp Stats Airport Information Weather charts Add Link Nearby VenuesMetar ALERT Operation Metar Decoded Social comments